createdAt,value
2016-04-30T19:42:54.716Z,101287
2016-04-30T19:43:10.060Z,101293
2016-04-30T19:43:24.953Z,101284
2016-04-30T19:43:39.828Z,101278
2016-04-30T19:43:54.421Z,101284
2016-04-30T19:44:08.874Z,101290
2016-04-30T19:44:23.377Z,101290
2016-04-30T19:44:38.424Z,101302
2016-04-30T19:44:54.112Z,101296
2016-04-30T19:45:07.752Z,101306
2016-04-30T19:45:22.240Z,101290
2016-04-30T19:45:35.537Z,101290
2016-04-30T19:45:49.334Z,101290
2016-04-30T19:46:03.849Z,101293
2016-04-30T19:46:18.227Z,101290
2016-04-30T19:46:31.915Z,101284
2016-04-30T19:46:47.149Z,101290
2016-04-30T19:47:00.493Z,101293
2016-04-30T19:47:15.167Z,101296
2016-04-30T19:47:29.479Z,101296
2016-04-30T19:47:44.464Z,101290
2016-04-30T19:47:58.479Z,101290
2016-04-30T19:48:12.451Z,101296
2016-04-30T19:48:27.467Z,101302
2016-04-30T19:48:41.404Z,101287
2016-04-30T19:48:56.482Z,101299
2016-04-30T19:49:09.560Z,101290
2016-04-30T19:49:23.765Z,101299
2016-04-30T19:49:38.234Z,101293
2016-04-30T19:49:52.687Z,101284
2016-04-30T19:50:08.125Z,101296
2016-04-30T19:50:22.018Z,101302
2016-04-30T19:50:35.847Z,101293
2016-04-30T19:50:50.175Z,101296
2016-04-30T19:51:04.550Z,101308
2016-04-30T19:51:18.896Z,101302
2016-04-30T19:51:33.037Z,101299
2016-04-30T19:51:47.693Z,101296
2016-04-30T19:52:03.006Z,101308
2016-04-30T19:52:18.446Z,101311
2016-04-30T19:52:34.056Z,101305
2016-04-30T19:52:48.040Z,101306
2016-04-30T19:53:03.024Z,101299
2016-04-30T19:53:18.197Z,101306
2016-04-30T19:53:33.275Z,101306
2016-04-30T19:53:47.041Z,101308
2016-04-30T19:54:01.541Z,101299
2016-04-30T19:54:16.497Z,101311
2016-04-30T19:54:32.200Z,101308
2016-04-30T19:54:50.450Z,101311
2016-04-30T19:55:13.673Z,101311
2016-04-30T19:55:28.923Z,101311
2016-04-30T19:55:42.767Z,101311
2016-04-30T19:55:56.595Z,101299
2016-04-30T19:56:10.532Z,101302
2016-04-30T19:56:25.238Z,101296
2016-04-30T19:56:39.222Z,101306
2016-04-30T19:56:52.941Z,101293
2016-04-30T19:57:07.269Z,101311
2016-04-30T19:57:21.053Z,101308
2016-04-30T19:57:35.631Z,101308
2016-04-30T19:57:49.459Z,101308
2016-04-30T19:58:05.116Z,101299
2016-04-30T19:58:17.712Z,101302
2016-04-30T19:58:33.040Z,101296
2016-04-30T19:58:47.494Z,101302
2016-04-30T19:59:03.103Z,101306
2016-04-30T19:59:18.417Z,101299
2016-04-30T19:59:32.121Z,101290
2016-04-30T19:59:46.621Z,101303
2016-04-30T20:00:01.230Z,101306
2016-04-30T20:00:16.216Z,101306
2016-04-30T20:00:31.060Z,101299
2016-04-30T20:00:45.732Z,101299
2016-04-30T20:00:59.966Z,101308
2016-04-30T20:01:15.111Z,101311
2016-04-30T20:01:36.627Z,101302
2016-04-30T20:01:51.486Z,101299
2016-04-30T20:02:06.002Z,101302
2016-04-30T20:02:20.894Z,101302
2016-04-30T20:02:36.238Z,101299
2016-04-30T20:02:51.035Z,101314
2016-04-30T20:03:06.488Z,101317
2016-04-30T20:03:24.147Z,101314
2016-04-30T20:03:42.616Z,101314
2016-04-30T20:03:57.022Z,101308
2016-04-30T20:04:12.947Z,101306
2016-04-30T20:04:34.150Z,101308
2016-04-30T20:04:54.853Z,101314
2016-04-30T20:05:12.793Z,101311
2016-04-30T20:05:31.762Z,101311
2016-04-30T20:06:00.762Z,101317
2016-04-30T20:06:16.640Z,101317
2016-04-30T20:06:36.327Z,101302
2016-04-30T20:06:51.311Z,101311
2016-04-30T20:07:06.374Z,101320
2016-04-30T20:07:21.814Z,101302
2016-04-30T20:07:37.799Z,101320
2016-04-30T20:07:52.861Z,101308
2016-04-30T20:08:09.174Z,101317
2016-04-30T20:08:24.863Z,101308
2016-04-30T20:08:41.520Z,101308
2016-04-30T20:08:57.676Z,101308
2016-04-30T20:09:14.710Z,101302
2016-04-30T20:09:29.085Z,101311
2016-04-30T20:09:44.663Z,101317
2016-04-30T20:10:02.319Z,101317
2016-04-30T20:10:17.760Z,101314
2016-04-30T20:10:34.041Z,101314
2016-04-30T20:10:49.260Z,101323
2016-04-30T20:11:04.244Z,101320
2016-04-30T20:11:19.465Z,101314
2016-04-30T20:11:33.762Z,101317
2016-04-30T20:11:49.121Z,101314
2016-04-30T20:12:03.809Z,101320
2016-04-30T20:12:18.781Z,101316
2016-04-30T20:12:33.515Z,101332
2016-04-30T20:12:47.281Z,101322
2016-04-30T20:13:02.906Z,101313
2016-04-30T20:13:19.080Z,101319
2016-04-30T20:13:36.455Z,101316
2016-04-30T20:13:50.409Z,101319
2016-04-30T20:14:05.455Z,101306
2016-04-30T20:14:20.115Z,101309
2016-04-30T20:14:33.193Z,101313
2016-04-30T20:14:46.740Z,101322
2016-04-30T20:15:00.521Z,101313
2016-04-30T20:15:15.023Z,101306
2016-04-30T20:15:29.523Z,101306
2016-04-30T20:15:49.257Z,101313
2016-04-30T20:16:01.835Z,101316
2016-04-30T20:16:15.745Z,101325
2016-04-30T20:16:29.229Z,101316
2016-04-30T20:16:42.948Z,101319
2016-04-30T20:16:57.260Z,101313
2016-04-30T20:17:11.792Z,101316
2016-04-30T20:17:25.873Z,101328
2016-04-30T20:17:39.701Z,101325
2016-04-30T20:17:52.998Z,101316
2016-04-30T20:18:07.201Z,101316
2016-04-30T20:18:21.297Z,101310
2016-04-30T20:18:34.031Z,101322
2016-04-30T20:18:46.484Z,101319
2016-04-30T20:19:02.297Z,101316
2016-04-30T20:19:15.518Z,101322
2016-04-30T20:19:30.065Z,101319
2016-04-30T20:19:45.675Z,101319
2016-04-30T20:20:12.598Z,101319
2016-04-30T20:20:28.614Z,101323
2016-04-30T20:20:47.755Z,101326
2016-04-30T20:21:02.192Z,101310
2016-04-30T20:21:18.305Z,101310
2016-04-30T20:21:32.476Z,101323
2016-04-30T20:21:45.430Z,101310
2016-04-30T20:21:59.680Z,101320
2016-04-30T20:22:12.761Z,101320
2016-04-30T20:22:25.464Z,101310
2016-04-30T20:22:38.854Z,101320
2016-04-30T20:22:53.104Z,101329
2016-04-30T20:23:05.922Z,101310
2016-04-30T20:23:19.471Z,101313
2016-04-30T20:23:33.580Z,101323
2016-04-30T20:23:46.221Z,101323
2016-04-30T20:23:58.643Z,101329
2016-04-30T20:24:11.861Z,101323
2016-04-30T20:24:26.349Z,101317
2016-04-30T20:24:40.489Z,101329
2016-04-30T20:24:53.708Z,101323
2016-04-30T20:25:08.005Z,101329
2016-04-30T20:25:21.508Z,101332
2016-04-30T20:25:34.695Z,101326
2016-04-30T20:25:47.883Z,101329
2016-04-30T20:26:00.992Z,101326
2016-04-30T20:26:13.682Z,101323
2016-04-30T20:26:27.244Z,101329
2016-04-30T20:26:41.166Z,101323
2016-04-30T20:26:54.401Z,101317
2016-04-30T20:27:08.588Z,101332
2016-04-30T20:27:21.561Z,101338
2016-04-30T20:27:34.139Z,101320
2016-04-30T20:27:47.983Z,101329
2016-04-30T20:28:00.389Z,101317
2016-04-30T20:28:14.032Z,101332
2016-04-30T20:28:27.328Z,101332
2016-04-30T20:28:42.188Z,101326
2016-04-30T20:28:56.297Z,101329
2016-04-30T20:29:09.344Z,101320
2016-04-30T20:29:23.690Z,101332
2016-04-30T20:29:37.674Z,101320
2016-04-30T20:29:50.127Z,101341
2016-04-30T20:30:03.096Z,101323
2016-04-30T20:30:15.772Z,101323
2016-04-30T20:30:28.366Z,101329
2016-04-30T20:30:41.428Z,101332
2016-04-30T20:30:54.803Z,101326
2016-04-30T20:31:07.256Z,101338
2016-04-30T20:31:19.852Z,101329
2016-04-30T20:31:33.524Z,101326
2016-04-30T20:31:47.321Z,101329
2016-04-30T20:32:00.399Z,101326
2016-04-30T20:32:14.980Z,101317
2016-04-30T20:32:27.980Z,101329
2016-04-30T20:32:41.277Z,101329
2016-04-30T20:32:54.214Z,101335
2016-04-30T20:33:07.339Z,101326
2016-04-30T20:33:20.685Z,101332
2016-04-30T20:33:34.888Z,101326
2016-04-30T20:33:48.841Z,101332
2016-04-30T20:34:01.545Z,101323
2016-04-30T20:34:14.813Z,101326
2016-04-30T20:34:28.579Z,101326
2016-04-30T20:34:42.735Z,101326
2016-04-30T20:34:59.219Z,101338
2016-04-30T20:35:13.410Z,101320
2016-04-30T20:35:27.191Z,101323
2016-04-30T20:35:40.394Z,101320
2016-04-30T20:35:54.441Z,101329
2016-04-30T20:36:07.004Z,101329
2016-04-30T20:36:21.334Z,101323
2016-04-30T20:36:35.693Z,101323
2016-04-30T20:36:48.896Z,101329
2016-04-30T20:37:02.521Z,101323
2016-04-30T20:37:15.602Z,101332
2016-04-30T20:38:21.199Z,101329
2016-04-30T20:38:33.730Z,101326
2016-04-30T20:38:46.559Z,101329
2016-04-30T20:39:56.468Z,101326
2016-04-30T20:40:09.640Z,101326
2016-04-30T20:40:22.704Z,101335
2016-04-30T20:41:31.160Z,101335
2016-04-30T20:41:46.254Z,101332
2016-04-30T20:41:58.785Z,101338
2016-04-30T20:42:11.270Z,101332
2016-04-30T20:42:23.898Z,101329
2016-04-30T20:42:37.148Z,101332
2016-04-30T20:43:46.322Z,101332
2016-04-30T20:43:58.806Z,101345
2016-04-30T20:44:12.775Z,101332
2016-04-30T20:45:18.623Z,101332
2016-04-30T20:45:31.748Z,101329
2016-04-30T20:45:44.920Z,101338
2016-04-30T20:45:58.155Z,101348
2016-04-30T20:46:11.248Z,101344
2016-04-30T20:46:24.534Z,101332
2016-04-30T20:46:37.831Z,101341
2016-04-30T20:46:50.877Z,101335
2016-04-30T20:47:54.567Z,101351
2016-04-30T20:48:07.786Z,101356
2016-04-30T20:48:21.695Z,101348
2016-04-30T20:48:35.382Z,101335
2016-04-30T20:48:49.914Z,101341
2016-04-30T20:49:03.257Z,101351
2016-04-30T20:49:17.728Z,101348
2016-04-30T20:49:31.306Z,101344
2016-04-30T20:49:46.619Z,101356
2016-04-30T20:50:00.822Z,101348
2016-04-30T20:50:15.247Z,101345
2016-04-30T20:50:29.544Z,101351
2016-04-30T20:50:42.169Z,101338
2016-04-30T20:50:55.184Z,101344
2016-04-30T20:52:06.094Z,101341
2016-04-30T20:52:19.143Z,101345
2016-04-30T20:52:31.784Z,101348
2016-04-30T20:52:44.409Z,101351
2016-04-30T20:52:57.128Z,101344
2016-04-30T20:53:10.315Z,101348
2016-04-30T20:53:22.833Z,101338
2016-04-30T20:54:26.320Z,101351
2016-04-30T20:54:38.961Z,101348
2016-04-30T20:54:51.852Z,101338
2016-04-30T20:55:04.570Z,101351
2016-04-30T20:55:17.980Z,101351
2016-04-30T20:55:31.183Z,101344
2016-04-30T20:55:43.698Z,101351
2016-04-30T20:55:59.589Z,101341
2016-04-30T20:56:12.198Z,101351
2016-04-30T20:56:24.841Z,101362
2016-04-30T20:56:37.403Z,101359
2016-04-30T20:56:50.778Z,101351
2016-04-30T20:57:53.735Z,101359
2016-04-30T20:58:06.266Z,101344
2016-04-30T20:58:19.955Z,101356
2016-04-30T20:58:33.627Z,101341
2016-04-30T20:58:46.315Z,101351
2016-04-30T20:58:59.893Z,101348
2016-04-30T20:59:12.346Z,101356
2016-04-30T20:59:24.896Z,101351
2016-04-30T21:00:36.180Z,101362
2016-04-30T21:00:48.680Z,101365
2016-04-30T21:01:01.289Z,101344
2016-04-30T21:01:13.886Z,101351
2016-04-30T21:01:26.402Z,101356
2016-04-30T21:01:38.902Z,101356
2016-04-30T21:01:51.636Z,101351
2016-04-30T21:02:04.167Z,101356
2016-04-30T21:02:17.107Z,101356
2016-04-30T21:02:29.826Z,101356
2016-04-30T21:02:42.248Z,101359
2016-04-30T21:02:55.373Z,101359
2016-04-30T21:03:10.716Z,101341
2016-04-30T21:03:23.313Z,101365
2016-04-30T21:03:36.266Z,101362
2016-04-30T21:04:47.644Z,101356
2016-04-30T21:05:00.785Z,101348
2016-04-30T21:05:15.694Z,101351
2016-04-30T21:05:36.928Z,101356
2016-04-30T21:05:50.241Z,101365
2016-04-30T21:06:02.944Z,101341
2016-04-30T21:06:15.696Z,101347
2016-04-30T21:06:28.087Z,101351
2016-04-30T21:07:36.355Z,101365
2016-04-30T21:07:49.074Z,101356
2016-04-30T21:08:01.683Z,101362
2016-04-30T21:09:06.358Z,101365
2016-04-30T21:09:19.017Z,101362
2016-04-30T21:09:31.595Z,101374
2016-04-30T21:10:41.301Z,101359
2016-04-30T21:10:54.863Z,101362
2016-04-30T21:11:08.457Z,101362
2016-04-30T21:12:13.772Z,101365
2016-04-30T21:12:27.525Z,101362
2016-04-30T21:12:40.681Z,101356
2016-04-30T21:12:56.384Z,101359
2016-04-30T21:13:09.462Z,101368
2016-04-30T21:13:33.559Z,101365
2016-04-30T21:14:39.436Z,101365
2016-04-30T21:14:54.889Z,101368
2016-04-30T21:15:09.826Z,101347
2016-04-30T21:15:23.533Z,101362
2016-04-30T21:15:39.314Z,101365
2016-04-30T21:15:53.173Z,101362
2016-04-30T21:16:06.704Z,101365
2016-04-30T21:16:19.676Z,101365
2016-04-30T21:16:33.911Z,101374
2016-04-30T21:16:48.629Z,101362
2016-04-30T21:17:02.661Z,101362
2016-04-30T21:17:16.039Z,101356
2016-04-30T21:17:30.476Z,101374
2016-04-30T21:17:45.648Z,101368
2016-04-30T21:18:00.304Z,101368
2016-04-30T21:18:14.901Z,101371
2016-04-30T21:18:30.057Z,101359
2016-04-30T21:18:44.401Z,101359
2016-04-30T21:18:56.932Z,101368
2016-04-30T21:19:10.167Z,101368
2016-04-30T21:19:24.544Z,101362
2016-04-30T21:19:39.231Z,101368
2016-04-30T21:19:54.200Z,101359
2016-04-30T21:20:08.637Z,101371
2016-04-30T21:20:23.624Z,101362
2016-04-30T21:20:38.592Z,101371
2016-04-30T21:20:54.483Z,101365
2016-04-30T21:21:10.483Z,101374
2016-04-30T21:21:25.580Z,101365
2016-04-30T21:21:40.908Z,101362
2016-04-30T21:21:54.783Z,101362
2016-04-30T21:22:08.705Z,101362
2016-04-30T21:22:23.255Z,101365
2016-04-30T21:22:37.755Z,101356
2016-04-30T21:22:52.505Z,101359
2016-04-30T21:23:07.364Z,101365
2016-04-30T21:23:21.055Z,101365
2016-04-30T21:23:35.055Z,101350
2016-04-30T21:23:50.508Z,101362
2016-04-30T21:24:05.258Z,101365
2016-04-30T21:24:19.933Z,101351
2016-04-30T21:24:33.651Z,101365
2016-04-30T21:24:47.870Z,101350
2016-04-30T21:25:01.698Z,101359
2016-04-30T21:25:13.979Z,101359
2016-04-30T21:25:27.138Z,101365
2016-04-30T21:25:40.403Z,101356
2016-04-30T21:25:54.044Z,101347
2016-04-30T21:26:08.013Z,101365
2016-04-30T21:26:21.750Z,101362
2016-04-30T21:26:35.422Z,101362
2016-04-30T21:26:48.609Z,101356
2016-04-30T21:27:01.063Z,101356
2016-04-30T21:27:13.656Z,101356
2016-04-30T21:27:27.706Z,101355
2016-04-30T21:27:44.612Z,101344
2016-04-30T21:27:57.769Z,101365
2016-04-30T21:28:13.394Z,101362
2016-04-30T21:28:26.662Z,101365
2016-04-30T21:28:40.381Z,101365
2016-04-30T21:28:53.069Z,101359
2016-04-30T21:29:05.584Z,101359
2016-04-30T21:29:18.555Z,101365
2016-04-30T21:29:31.071Z,101365
2016-04-30T21:29:43.774Z,101368
2016-04-30T21:29:57.586Z,101359
2016-04-30T21:30:12.133Z,101362
2016-04-30T21:30:26.152Z,101359
2016-04-30T21:30:45.855Z,101362
2016-04-30T21:30:58.527Z,101359
2016-04-30T21:31:11.292Z,101347
2016-04-30T21:31:23.967Z,101362
2016-04-30T21:31:36.498Z,101362
2016-04-30T21:31:50.561Z,101356
2016-04-30T21:32:03.030Z,101362
2016-04-30T21:32:16.000Z,101359
2016-04-30T21:32:28.782Z,101362
2016-04-30T21:32:41.344Z,101368
2016-04-30T21:32:53.922Z,101356
2016-04-30T21:33:07.750Z,101359
2016-04-30T21:33:20.394Z,101368
2016-04-30T21:33:33.644Z,101365
2016-04-30T21:33:46.597Z,101365
2016-04-30T21:34:01.800Z,101362
2016-04-30T21:34:16.006Z,101359
2016-04-30T21:34:29.319Z,101374
2016-04-30T21:34:42.163Z,101359
2016-04-30T21:34:54.803Z,101362
2016-04-30T21:35:09.100Z,101371
2016-04-30T21:35:25.494Z,101362
2016-04-30T21:35:44.228Z,101371
2016-04-30T21:36:03.197Z,101362
2016-04-30T21:36:19.652Z,101359
2016-04-30T21:36:33.840Z,101368
2016-04-30T21:36:48.418Z,101359
2016-04-30T21:37:01.105Z,101371
2016-04-30T21:37:14.843Z,101365
2016-04-30T21:37:27.749Z,101365
2016-04-30T21:37:40.249Z,101365
2016-04-30T21:38:51.313Z,101365
2016-04-30T21:39:04.938Z,101374
2016-04-30T21:39:17.504Z,101365
2016-04-30T21:39:30.223Z,101371
2016-04-30T21:39:44.035Z,101362
2016-04-30T21:40:56.319Z,101368
2016-04-30T21:41:08.866Z,101377
2016-04-30T21:41:22.807Z,101374
2016-04-30T21:42:28.887Z,101380
2016-04-30T21:42:41.387Z,101365
2016-04-30T21:42:54.090Z,101359
2016-04-30T21:43:07.293Z,101377
2016-04-30T21:44:11.374Z,101374
2016-04-30T21:44:24.100Z,101374
2016-04-30T21:45:33.862Z,101362
2016-04-30T21:46:46.203Z,101368
2016-04-30T21:46:58.890Z,101371
2016-04-30T21:47:12.984Z,101365
2016-04-30T21:47:31.902Z,101374
2016-04-30T21:48:38.837Z,101374
2016-04-30T21:48:51.384Z,101362
2016-04-30T21:49:59.961Z,101350
2016-04-30T21:50:12.601Z,101359
2016-04-30T21:50:26.337Z,101365
2016-04-30T21:50:40.212Z,101359
2016-04-30T21:50:52.665Z,101368
2016-04-30T21:52:49.981Z,101362
2016-04-30T21:53:05.747Z,101362
2016-04-30T21:54:08.998Z,101347
2016-04-30T21:54:21.635Z,101359
2016-04-30T21:54:34.713Z,101365
2016-04-30T21:54:47.167Z,101362
2016-04-30T21:55:56.426Z,101355
2016-04-30T21:56:09.379Z,101347
2016-04-30T21:56:21.948Z,101344
2016-04-30T21:56:34.667Z,101365
2016-04-30T21:56:47.401Z,101362
2016-04-30T21:56:59.917Z,101355
2016-04-30T21:57:14.558Z,101350
2016-04-30T21:57:27.160Z,101355
2016-04-30T21:57:39.645Z,101358
2016-04-30T21:57:52.254Z,101362
2016-04-30T21:58:04.957Z,101358
2016-04-30T21:58:17.528Z,101358
2016-04-30T21:59:21.581Z,101358
2016-04-30T21:59:34.252Z,101371
2016-04-30T21:59:46.706Z,101350
2016-04-30T21:59:59.268Z,101377
2016-04-30T22:00:12.002Z,101358
2016-04-30T22:00:24.429Z,101361
2016-04-30T22:00:36.929Z,101367
2016-04-30T22:00:49.367Z,101360
2016-04-30T22:01:01.851Z,101366
2016-04-30T22:01:14.445Z,101363
2016-04-30T22:01:27.059Z,101366
2016-04-30T22:01:39.716Z,101360
2016-04-30T22:01:52.387Z,101348
2016-04-30T22:02:05.512Z,101369
2016-04-30T22:02:18.110Z,101365
2016-04-30T22:02:31.407Z,101365
2016-04-30T22:02:44.126Z,101365
2016-04-30T22:02:56.626Z,101359
2016-04-30T22:03:09.204Z,101380
2016-04-30T22:03:21.880Z,101362
2016-04-30T22:03:34.317Z,101365
2016-04-30T22:03:46.739Z,101362
2016-04-30T22:03:59.239Z,101358
2016-04-30T22:04:11.786Z,101365
2016-04-30T22:04:24.213Z,101374
2016-04-30T22:04:36.854Z,101361
2016-04-30T22:04:50.385Z,101374
2016-04-30T22:05:06.604Z,101374
2016-04-30T22:05:20.482Z,101367
2016-04-30T22:05:33.278Z,101367
2016-04-30T22:05:46.357Z,101373
2016-04-30T22:05:58.857Z,101367
2016-04-30T22:06:11.325Z,101364
2016-04-30T22:07:16.520Z,101373
2016-04-30T22:07:29.067Z,101373
2016-04-30T22:07:41.410Z,101370
2016-04-30T22:07:54.129Z,101382
2016-04-30T22:08:06.723Z,101373
2016-04-30T22:08:19.132Z,101373
2016-04-30T22:09:26.635Z,101369
2016-04-30T22:09:39.245Z,101366
2016-04-30T22:09:51.729Z,101372
2016-04-30T22:10:04.323Z,101360
2016-04-30T22:10:16.998Z,101363
2016-04-30T22:10:29.451Z,101369
2016-04-30T22:11:34.297Z,101369
2016-04-30T22:11:46.704Z,101357
2016-04-30T22:11:59.297Z,101375
2016-04-30T22:13:06.597Z,101351
2016-04-30T22:13:19.069Z,101366
2016-04-30T22:13:31.663Z,101390
2016-04-30T22:14:39.039Z,101375
2016-04-30T22:14:51.508Z,101384
2016-04-30T22:16:01.667Z,101378
2016-04-30T22:17:14.186Z,101377
2016-04-30T22:17:26.782Z,101390
2016-04-30T22:17:39.954Z,101387
2016-04-30T22:17:52.407Z,101380
2016-04-30T22:18:05.063Z,101386
2016-04-30T22:19:16.538Z,101386
2016-04-30T22:20:21.728Z,101399
2016-04-30T22:20:35.665Z,101392
2016-04-30T22:20:48.181Z,101392
2016-04-30T22:21:00.650Z,101392
2016-04-30T22:22:09.153Z,101395
2016-04-30T22:23:14.187Z,101383
2016-04-30T22:23:26.689Z,101386
2016-04-30T22:24:34.192Z,101386
2016-04-30T22:24:46.864Z,101386
2016-04-30T22:24:59.317Z,101386
2016-04-30T22:26:11.679Z,101386
2016-04-30T22:26:24.337Z,101386
2016-04-30T22:26:36.791Z,101382
2016-04-30T22:26:49.275Z,101392
2016-04-30T22:27:01.931Z,101392
2016-04-30T22:27:14.416Z,101373
2016-04-30T22:27:26.903Z,101376
2016-04-30T22:27:39.512Z,101376
2016-04-30T22:27:52.044Z,101376
2016-04-30T22:28:04.622Z,101379
2016-04-30T22:28:17.109Z,101382
2016-04-30T22:28:29.718Z,101382
2016-04-30T22:29:36.674Z,101376
2016-04-30T22:29:49.158Z,101385
2016-04-30T22:30:01.783Z,101394
2016-04-30T22:30:14.236Z,101394
2016-04-30T22:30:26.723Z,101388
2016-04-30T22:30:39.380Z,101394
2016-04-30T22:30:52.005Z,101376
2016-04-30T22:31:05.161Z,101376
2016-04-30T22:31:17.773Z,101382
2016-04-30T22:31:30.398Z,101382
2016-04-30T22:31:42.976Z,101388
2016-04-30T22:31:55.461Z,101385
2016-04-30T22:32:08.101Z,101394
2016-04-30T22:32:20.697Z,101400
2016-04-30T22:32:33.197Z,101388
2016-04-30T22:32:45.713Z,101391
2016-04-30T22:33:12.682Z,101382
2016-04-30T22:33:33.263Z,101400
2016-04-30T22:33:45.794Z,101388
2016-04-30T22:33:58.450Z,101379
2016-04-30T22:34:10.935Z,101397
2016-04-30T22:34:23.406Z,101388
2016-04-30T22:34:36.047Z,101388
2016-04-30T22:34:49.875Z,101385
2016-04-30T22:35:03.328Z,101394
2016-04-30T22:35:15.672Z,101397
2016-04-30T22:35:28.846Z,101391
2016-04-30T22:35:42.440Z,101400
2016-04-30T22:35:54.877Z,101391
2016-04-30T22:36:07.361Z,101397
2016-04-30T22:36:19.927Z,101400
2016-04-30T22:36:32.489Z,101394
2016-04-30T22:37:36.696Z,101388
2016-04-30T22:37:49.321Z,101391
2016-04-30T22:38:01.883Z,101394
2016-04-30T22:38:14.414Z,101397
2016-04-30T22:38:46.401Z,101400
2016-04-30T22:38:58.885Z,101387
2016-04-30T22:39:11.479Z,101394
2016-04-30T22:40:18.985Z,101397
2016-04-30T22:40:31.469Z,101393
2016-04-30T22:40:45.704Z,101409
2016-04-30T22:40:58.391Z,101390
2016-04-30T22:41:10.797Z,101387
2016-04-30T22:41:23.362Z,101378
2016-04-30T22:42:31.662Z,101384
2016-04-30T22:42:44.068Z,101390
2016-04-30T22:42:56.662Z,101390
2016-04-30T22:44:06.227Z,101387
2016-04-30T22:44:18.761Z,101381
2016-04-30T22:44:31.246Z,101390
2016-04-30T22:45:36.717Z,101390
2016-04-30T22:45:49.310Z,101384
2016-04-30T22:46:59.032Z,101384
2016-04-30T22:48:01.706Z,101393
2016-04-30T22:48:14.300Z,101390
2016-04-30T22:48:26.788Z,101380
2016-04-30T22:48:39.460Z,101393
2016-04-30T22:48:52.194Z,101390
2016-04-30T22:49:57.321Z,101405
2016-04-30T22:51:08.996Z,101411
2016-04-30T22:51:21.405Z,101405
2016-04-30T22:51:33.999Z,101395
2016-04-30T22:51:46.671Z,101402
2016-04-30T22:52:51.532Z,101399
2016-04-30T22:53:56.473Z,101392
2016-04-30T22:54:09.114Z,101404
2016-04-30T22:55:16.475Z,101404
2016-04-30T22:55:29.087Z,101401
2016-04-30T22:55:41.712Z,101401
2016-04-30T22:56:54.012Z,101395
2016-04-30T22:57:06.731Z,101395
2016-04-30T22:57:19.233Z,101404
2016-04-30T22:57:31.842Z,101407
2016-04-30T22:57:44.374Z,101398
2016-04-30T22:57:56.827Z,101395
2016-04-30T22:58:09.530Z,101407
2016-04-30T22:58:22.095Z,101407
2016-04-30T22:58:34.580Z,101407
2016-04-30T22:58:47.189Z,101410
2016-04-30T22:58:59.845Z,101413
2016-04-30T22:59:12.283Z,101395
2016-04-30T23:00:18.975Z,101407
2016-04-30T23:00:31.507Z,101404
2016-04-30T23:00:44.022Z,101398
2016-04-30T23:00:56.475Z,101398
2016-04-30T23:01:09.132Z,101401
2016-04-30T23:01:21.728Z,101401
2016-04-30T23:01:34.244Z,101398
2016-04-30T23:01:46.806Z,101401
2016-04-30T23:01:59.478Z,101407
2016-04-30T23:02:11.885Z,101401
2016-04-30T23:02:24.434Z,101395
2016-04-30T23:02:37.075Z,101395
2016-04-30T23:02:49.575Z,101404
2016-04-30T23:03:02.138Z,101404
2016-04-30T23:03:14.794Z,101398
2016-04-30T23:03:27.437Z,101410
2016-04-30T23:03:39.953Z,101395
2016-04-30T23:03:52.437Z,101407
2016-04-30T23:04:05.078Z,101407
2016-04-30T23:04:17.578Z,101404
2016-04-30T23:04:30.050Z,101410
2016-04-30T23:04:43.253Z,101398
2016-04-30T23:04:57.425Z,101394
2016-04-30T23:05:11.878Z,101398
2016-04-30T23:05:26.708Z,101404
2016-04-30T23:05:39.380Z,101401
2016-04-30T23:05:51.864Z,101401
2016-04-30T23:06:04.427Z,101407
2016-04-30T23:06:17.661Z,101391
2016-04-30T23:06:30.383Z,101391
2016-04-30T23:06:42.899Z,101404
2016-04-30T23:06:56.039Z,101410
2016-04-30T23:08:06.651Z,101391
2016-04-30T23:08:19.185Z,101416
2016-04-30T23:08:31.763Z,101397
2016-04-30T23:08:44.435Z,101413
2016-04-30T23:08:56.888Z,101403
2016-04-30T23:09:09.419Z,101397
2016-04-30T23:09:22.094Z,101394
2016-04-30T23:11:29.052Z,101403
2016-04-30T23:11:41.583Z,101415
2016-04-30T23:11:54.068Z,101397
2016-04-30T23:12:06.677Z,101415
2016-04-30T23:12:19.196Z,101403
2016-04-30T23:12:31.680Z,101394
2016-04-30T23:13:44.589Z,101431
2016-04-30T23:13:57.793Z,101406
2016-04-30T23:14:10.527Z,101422
2016-04-30T23:14:23.185Z,101403
2016-04-30T23:14:35.716Z,101412
2016-04-30T23:14:48.154Z,101421
2016-04-30T23:16:49.018Z,101418
2016-04-30T23:17:01.534Z,101412
2016-04-30T23:18:11.600Z,101427
2016-04-30T23:18:24.259Z,101418
2016-04-30T23:18:36.759Z,101406
2016-04-30T23:18:49.306Z,101418
2016-04-30T23:19:01.899Z,101418
2016-04-30T23:20:08.918Z,101421
2016-04-30T23:20:22.187Z,101421
2016-04-30T23:21:28.985Z,101421
2016-04-30T23:21:41.376Z,101433
2016-04-30T23:21:53.907Z,101424
2016-04-30T23:22:06.642Z,101430
2016-04-30T23:23:11.692Z,101421
2016-04-30T23:24:24.118Z,101433
2016-04-30T23:24:36.618Z,101415
2016-04-30T23:25:44.246Z,101433
2016-04-30T23:25:56.778Z,101427
2016-04-30T23:26:09.262Z,101418
2016-04-30T23:27:21.736Z,101430
2016-04-30T23:27:34.267Z,101418
2016-04-30T23:27:46.767Z,101427
2016-04-30T23:27:59.423Z,101430
2016-04-30T23:28:11.955Z,101427
2016-04-30T23:28:24.348Z,101430
2016-04-30T23:28:36.926Z,101427
2016-04-30T23:28:50.192Z,101424
2016-04-30T23:29:02.770Z,101430
2016-04-30T23:29:15.208Z,101427
2016-04-30T23:29:27.882Z,101433
2016-04-30T23:29:40.414Z,101424
2016-04-30T23:29:52.898Z,101427
2016-04-30T23:30:56.525Z,101433
2016-04-30T23:31:09.197Z,101436
2016-04-30T23:31:21.669Z,101427
2016-04-30T23:31:34.262Z,101427
2016-04-30T23:31:46.856Z,101436
2016-04-30T23:31:59.325Z,101433
2016-04-30T23:32:11.950Z,101430
2016-04-30T23:32:24.358Z,101427
2016-04-30T23:32:37.686Z,101427
2016-04-30T23:32:50.921Z,101427
2016-04-30T23:33:03.343Z,101427
2016-04-30T23:33:15.936Z,101433
2016-04-30T23:33:28.471Z,101421
2016-04-30T23:33:40.971Z,101421
2016-04-30T23:33:53.533Z,101433
2016-04-30T23:34:06.017Z,101430
2016-04-30T23:34:18.517Z,101418
2016-04-30T23:34:31.005Z,101430
2016-04-30T23:34:43.661Z,101433
2016-04-30T23:34:57.005Z,101421
2016-04-30T23:35:13.020Z,101424
2016-04-30T23:35:26.616Z,101433
2016-04-30T23:35:40.835Z,101436
2016-04-30T23:35:54.772Z,101427
2016-04-30T23:36:07.476Z,101436
2016-04-30T23:36:20.417Z,101442
2016-04-30T23:36:33.011Z,101436
2016-04-30T23:36:45.683Z,101427
2016-04-30T23:36:58.042Z,101433
2016-04-30T23:37:11.151Z,101421
2016-04-30T23:37:23.810Z,101433
2016-04-30T23:37:36.216Z,101430
2016-04-30T23:37:48.841Z,101424
2016-04-30T23:38:58.952Z,101442